sensor_id;sensor_type;location;lat;lon;timestamp;P1;durP1;ratioP1;P2;durP2;ratioP2
2940;SDS011;1480;51.456;6.670;2024-01-16T00:02:16;12.90;;;4.90;;
2940;SDS011;1480;51.456;6.670;2024-01-16T00:04:43;14.33;;;4.60;;
2940;SDS011;1480;51.456;6.670;2024-01-16T00:07:11;4.70;;;3.33;;
2940;SDS011;1480;51.456;6.670;2024-01-16T00:09:37;5.13;;;3.60;;
2940;SDS011;1480;51.456;6.670;2024-01-16T00:12:04;3.97;;;2.67;;
2940;SDS011;1480;51.456;6.670;2024-01-16T00:14:34;5.60;;;3.70;;
2940;SDS011;1480;51.456;6.670;2024-01-16T00:17:01;7.23;;;3.73;;
2940;SDS011;1480;51.456;6.670;2024-01-16T00:19:28;6.60;;;4.43;;
2940;SDS011;1480;51.456;6.670;2024-01-16T00:21:54;6.93;;;3.37;;
2940;SDS011;1480;51.456;6.670;2024-01-16T00:24:22;4.70;;;3.30;;
2940;SDS011;1480;51.456;6.670;2024-01-16T00:26:50;10.07;;;3.50;;
2940;SDS011;1480;51.456;6.670;2024-01-16T00:29:16;4.30;;;3.07;;
2940;SDS011;1480;51.456;6.670;2024-01-16T00:31:42;5.20;;;3.20;;
2940;SDS011;1480;51.456;6.670;2024-01-16T00:34:09;10.30;;;4.10;;
2940;SDS011;1480;51.456;6.670;2024-01-16T00:36:35;7.57;;;4.40;;
2940;SDS011;1480;51.456;6.670;2024-01-16T00:39:02;8.70;;;3.53;;
2940;SDS011;1480;51.456;6.670;2024-01-16T00:41:30;6.73;;;3.60;;
2940;SDS011;1480;51.456;6.670;2024-01-16T00:43:57;10.50;;;4.53;;
2940;SDS011;1480;51.456;6.670;2024-01-16T00:46:23;6.43;;;3.67;;
2940;SDS011;1480;51.456;6.670;2024-01-16T00:48:50;4.10;;;3.33;;
2940;SDS011;1480;51.456;6.670;2024-01-16T00:51:17;7.33;;;3.90;;
2940;SDS011;1480;51.456;6.670;2024-01-16T00:53:44;6.57;;;4.17;;
2940;SDS011;1480;51.456;6.670;2024-01-16T00:56:10;10.00;;;3.33;;
2940;SDS011;1480;51.456;6.670;2024-01-16T00:58:39;4.90;;;3.67;;
2940;SDS011;1480;51.456;6.670;2024-01-16T01:01:06;5.80;;;3.50;;
2940;SDS011;1480;51.456;6.670;2024-01-16T01:03:33;9.97;;;4.63;;
2940;SDS011;1480;51.456;6.670;2024-01-16T01:05:59;7.67;;;5.23;;
2940;SDS011;1480;51.456;6.670;2024-01-16T01:08:26;7.13;;;4.60;;
2940;SDS011;1480;51.456;6.670;2024-01-16T01:10:53;5.20;;;3.27;;
2940;SDS011;1480;51.456;6.670;2024-01-16T01:13:20;5.20;;;3.20;;
2940;SDS011;1480;51.456;6.670;2024-01-16T01:15:48;7.73;;;3.10;;
2940;SDS011;1480;51.456;6.670;2024-01-16T01:18:14;5.37;;;3.80;;
2940;SDS011;1480;51.456;6.670;2024-01-16T01:20:41;7.07;;;4.60;;
2940;SDS011;1480;51.456;6.670;2024-01-16T01:23:08;10.63;;;4.97;;
2940;SDS011;1480;51.456;6.670;2024-01-16T01:25:37;7.00;;;3.93;;
2940;SDS011;1480;51.456;6.670;2024-01-16T01:28:04;8.23;;;3.47;;
2940;SDS011;1480;51.456;6.670;2024-01-16T01:30:31;6.77;;;4.27;;
2940;SDS011;1480;51.456;6.670;2024-01-16T01:32:59;9.07;;;3.30;;
2940;SDS011;1480;51.456;6.670;2024-01-16T01:35:26;5.90;;;3.87;;
2940;SDS011;1480;51.456;6.670;2024-01-16T01:37:52;2.70;;;2.40;;
2940;SDS011;1480;51.456;6.670;2024-01-16T01:40:19;7.00;;;3.80;;
2940;SDS011;1480;51.456;6.670;2024-01-16T01:42:46;9.60;;;4.90;;
2940;SDS011;1480;51.456;6.670;2024-01-16T01:45:12;6.33;;;3.90;;
2940;SDS011;1480;51.456;6.670;2024-01-16T01:47:39;6.00;;;3.70;;
2940;SDS011;1480;51.456;6.670;2024-01-16T01:50:09;7.63;;;4.13;;
2940;SDS011;1480;51.456;6.670;2024-01-16T01:52:36;8.53;;;3.93;;
2940;SDS011;1480;51.456;6.670;2024-01-16T01:55:05;8.93;;;4.27;;
2940;SDS011;1480;51.456;6.670;2024-01-16T01:57:34;10.00;;;4.50;;
2940;SDS011;1480;51.456;6.670;2024-01-16T02:00:00;7.10;;;3.40;;
2940;SDS011;1480;51.456;6.670;2024-01-16T02:02:38;7.90;;;4.97;;
2940;SDS011;1480;51.456;6.670;2024-01-16T02:05:04;4.57;;;3.33;;
2940;SDS011;1480;51.456;6.670;2024-01-16T02:07:33;6.30;;;3.77;;
2940;SDS011;1480;51.456;6.670;2024-01-16T02:10:01;8.20;;;3.80;;
2940;SDS011;1480;51.456;6.670;2024-01-16T02:12:29;5.53;;;3.70;;
2940;SDS011;1480;51.456;6.670;2024-01-16T02:14:57;6.57;;;4.20;;
2940;SDS011;1480;51.456;6.670;2024-01-16T02:17:24;10.03;;;4.40;;
2940;SDS011;1480;51.456;6.670;2024-01-16T02:19:50;14.13;;;5.60;;
2940;SDS011;1480;51.456;6.670;2024-01-16T02:22:19;8.40;;;4.67;;
2940;SDS011;1480;51.456;6.670;2024-01-16T02:24:48;8.03;;;4.37;;
2940;SDS011;1480;51.456;6.670;2024-01-16T02:27:15;10.97;;;5.83;;
2940;SDS011;1480;51.456;6.670;2024-01-16T02:29:42;6.13;;;4.37;;
2940;SDS011;1480;51.456;6.670;2024-01-16T02:32:09;7.50;;;4.77;;
2940;SDS011;1480;51.456;6.670;2024-01-16T02:34:37;10.67;;;4.97;;
2940;SDS011;1480;51.456;6.670;2024-01-16T02:37:04;5.43;;;4.50;;
2940;SDS011;1480;51.456;6.670;2024-01-16T02:39:31;11.10;;;5.73;;
2940;SDS011;1480;51.456;6.670;2024-01-16T02:41:59;10.97;;;7.27;;
2940;SDS011;1480;51.456;6.670;2024-01-16T02:44:26;9.67;;;4.97;;
2940;SDS011;1480;51.456;6.670;2024-01-16T02:46:53;9.77;;;5.20;;
2940;SDS011;1480;51.456;6.670;2024-01-16T02:49:19;9.57;;;5.17;;
2940;SDS011;1480;51.456;6.670;2024-01-16T02:51:46;8.23;;;5.83;;
2940;SDS011;1480;51.456;6.670;2024-01-16T02:54:14;8.83;;;5.33;;
2940;SDS011;1480;51.456;6.670;2024-01-16T02:56:40;8.17;;;5.73;;
2940;SDS011;1480;51.456;6.670;2024-01-16T02:59:08;8.43;;;6.37;;
2940;SDS011;1480;51.456;6.670;2024-01-16T03:01:35;9.60;;;6.30;;
2940;SDS011;1480;51.456;6.670;2024-01-16T03:04:05;12.80;;;7.27;;
2940;SDS011;1480;51.456;6.670;2024-01-16T03:06:31;8.00;;;6.10;;
2940;SDS011;1480;51.456;6.670;2024-01-16T03:08:58;9.13;;;6.30;;
2940;SDS011;1480;51.456;6.670;2024-01-16T03:11:25;10.83;;;5.67;;
2940;SDS011;1480;51.456;6.670;2024-01-16T03:13:51;11.97;;;6.13;;
2940;SDS011;1480;51.456;6.670;2024-01-16T03:16:20;11.47;;;6.63;;
2940;SDS011;1480;51.456;6.670;2024-01-16T03:18:46;14.37;;;6.80;;
2940;SDS011;1480;51.456;6.670;2024-01-16T03:21:13;13.40;;;6.53;;
2940;SDS011;1480;51.456;6.670;2024-01-16T03:23:40;17.90;;;6.43;;
2940;SDS011;1480;51.456;6.670;2024-01-16T03:26:06;9.50;;;6.00;;
2940;SDS011;1480;51.456;6.670;2024-01-16T03:28:37;19.20;;;7.47;;
2940;SDS011;1480;51.456;6.670;2024-01-16T03:31:04;12.73;;;6.97;;
2940;SDS011;1480;51.456;6.670;2024-01-16T03:33:33;11.73;;;6.00;;
2940;SDS011;1480;51.456;6.670;2024-01-16T03:36:00;11.67;;;7.17;;
2940;SDS011;1480;51.456;6.670;2024-01-16T03:38:28;12.67;;;6.90;;
2940;SDS011;1480;51.456;6.670;2024-01-16T03:40:54;12.47;;;7.10;;
2940;SDS011;1480;51.456;6.670;2024-01-16T03:43:21;9.20;;;5.60;;
2940;SDS011;1480;51.456;6.670;2024-01-16T03:45:48;13.43;;;6.40;;
2940;SDS011;1480;51.456;6.670;2024-01-16T03:48:14;11.10;;;6.40;;
2940;SDS011;1480;51.456;6.670;2024-01-16T03:50:42;10.97;;;6.33;;
2940;SDS011;1480;51.456;6.670;2024-01-16T03:53:10;13.77;;;6.90;;
2940;SDS011;1480;51.456;6.670;2024-01-16T03:55:37;11.80;;;5.17;;
2940;SDS011;1480;51.456;6.670;2024-01-16T03:58:04;9.70;;;6.20;;
2940;SDS011;1480;51.456;6.670;2024-01-16T04:00:31;10.43;;;6.43;;
2940;SDS011;1480;51.456;6.670;2024-01-16T04:02:57;16.30;;;7.20;;
2940;SDS011;1480;51.456;6.670;2024-01-16T04:05:24;15.83;;;6.90;;
2940;SDS011;1480;51.456;6.670;2024-01-16T04:07:52;12.87;;;6.80;;
2940;SDS011;1480;51.456;6.670;2024-01-16T04:10:19;12.00;;;6.50;;
2940;SDS011;1480;51.456;6.670;2024-01-16T04:12:46;11.80;;;5.60;;
2940;SDS011;1480;51.456;6.670;2024-01-16T04:15:13;10.83;;;6.30;;
2940;SDS011;1480;51.456;6.670;2024-01-16T04:17:39;9.10;;;5.97;;
2940;SDS011;1480;51.456;6.670;2024-01-16T04:20:06;7.80;;;5.13;;
2940;SDS011;1480;51.456;6.670;2024-01-16T04:22:34;7.97;;;4.93;;
2940;SDS011;1480;51.456;6.670;2024-01-16T04:25:03;16.30;;;4.43;;
2940;SDS011;1480;51.456;6.670;2024-01-16T04:27:30;8.47;;;5.20;;
2940;SDS011;1480;51.456;6.670;2024-01-16T04:29:57;8.07;;;4.40;;
2940;SDS011;1480;51.456;6.670;2024-01-16T04:32:24;6.90;;;4.03;;
2940;SDS011;1480;51.456;6.670;2024-01-16T04:34:50;6.20;;;3.97;;
2940;SDS011;1480;51.456;6.670;2024-01-16T04:37:17;9.03;;;4.30;;
2940;SDS011;1480;51.456;6.670;2024-01-16T04:39:44;13.43;;;4.27;;
2940;SDS011;1480;51.456;6.670;2024-01-16T04:42:12;10.13;;;3.70;;
2940;SDS011;1480;51.456;6.670;2024-01-16T04:44:38;11.40;;;3.87;;
2940;SDS011;1480;51.456;6.670;2024-01-16T04:47:05;10.70;;;4.00;;
2940;SDS011;1480;51.456;6.670;2024-01-16T04:49:32;6.23;;;4.10;;
2940;SDS011;1480;51.456;6.670;2024-01-16T04:51:59;6.77;;;4.27;;
2940;SDS011;1480;51.456;6.670;2024-01-16T04:54:25;7.43;;;2.57;;
2940;SDS011;1480;51.456;6.670;2024-01-16T04:56:52;7.70;;;3.47;;
2940;SDS011;1480;51.456;6.670;2024-01-16T04:59:20;4.07;;;2.63;;
2940;SDS011;1480;51.456;6.670;2024-01-16T05:01:47;9.53;;;3.77;;
2940;SDS011;1480;51.456;6.670;2024-01-16T05:04:13;4.10;;;2.83;;
2940;SDS011;1480;51.456;6.670;2024-01-16T05:06:40;7.10;;;3.30;;
2940;SDS011;1480;51.456;6.670;2024-01-16T05:09:07;5.37;;;3.17;;
2940;SDS011;1480;51.456;6.670;2024-01-16T05:11:34;3.97;;;2.77;;
2940;SDS011;1480;51.456;6.670;2024-01-16T05:14:00;5.77;;;2.60;;
2940;SDS011;1480;51.456;6.670;2024-01-16T05:16:28;6.20;;;3.27;;
2940;SDS011;1480;51.456;6.670;2024-01-16T05:18:55;4.50;;;3.03;;
2940;SDS011;1480;51.456;6.670;2024-01-16T05:21:22;5.60;;;3.77;;
2940;SDS011;1480;51.456;6.670;2024-01-16T05:23:48;4.70;;;2.93;;
2940;SDS011;1480;51.456;6.670;2024-01-16T05:26:16;7.00;;;3.60;;
2940;SDS011;1480;51.456;6.670;2024-01-16T05:28:43;8.70;;;4.20;;
2940;SDS011;1480;51.456;6.670;2024-01-16T05:31:09;8.63;;;5.03;;
2940;SDS011;1480;51.456;6.670;2024-01-16T05:33:37;10.10;;;5.00;;
2940;SDS011;1480;51.456;6.670;2024-01-16T05:36:04;7.60;;;4.67;;
2940;SDS011;1480;51.456;6.670;2024-01-16T05:38:31;9.33;;;5.13;;
2940;SDS011;1480;51.456;6.670;2024-01-16T05:40:58;14.53;;;5.63;;
2940;SDS011;1480;51.456;6.670;2024-01-16T05:43:25;16.87;;;7.83;;
2940;SDS011;1480;51.456;6.670;2024-01-16T05:45:53;12.20;;;6.90;;
2940;SDS011;1480;51.456;6.670;2024-01-16T05:48:20;13.70;;;6.77;;
2940;SDS011;1480;51.456;6.670;2024-01-16T05:50:48;11.60;;;6.73;;
2940;SDS011;1480;51.456;6.670;2024-01-16T05:53:15;17.47;;;8.40;;
2940;SDS011;1480;51.456;6.670;2024-01-16T05:55:42;15.57;;;10.53;;
2940;SDS011;1480;51.456;6.670;2024-01-16T05:58:08;17.70;;;9.37;;
2940;SDS011;1480;51.456;6.670;2024-01-16T06:00:35;17.70;;;9.83;;
2940;SDS011;1480;51.456;6.670;2024-01-16T06:03:03;14.87;;;8.60;;
2940;SDS011;1480;51.456;6.670;2024-01-16T06:05:30;16.93;;;9.27;;
2940;SDS011;1480;51.456;6.670;2024-01-16T06:07:58;15.20;;;9.70;;
2940;SDS011;1480;51.456;6.670;2024-01-16T06:10:24;17.30;;;9.87;;
2940;SDS011;1480;51.456;6.670;2024-01-16T06:12:51;13.33;;;9.00;;
2940;SDS011;1480;51.456;6.670;2024-01-16T06:15:18;15.87;;;10.80;;
2940;SDS011;1480;51.456;6.670;2024-01-16T06:17:44;16.50;;;9.13;;
2940;SDS011;1480;51.456;6.670;2024-01-16T06:20:11;14.33;;;8.10;;
2940;SDS011;1480;51.456;6.670;2024-01-16T06:22:38;18.90;;;8.37;;
2940;SDS011;1480;51.456;6.670;2024-01-16T06:25:06;8.97;;;7.70;;
2940;SDS011;1480;51.456;6.670;2024-01-16T06:27:33;21.63;;;8.53;;
2940;SDS011;1480;51.456;6.670;2024-01-16T06:30:00;14.10;;;7.60;;
2940;SDS011;1480;51.456;6.670;2024-01-16T06:32:28;12.40;;;6.67;;
2940;SDS011;1480;51.456;6.670;2024-01-16T06:34:55;12.80;;;6.93;;
2940;SDS011;1480;51.456;6.670;2024-01-16T06:37:22;11.20;;;6.20;;
2940;SDS011;1480;51.456;6.670;2024-01-16T06:39:49;9.83;;;6.70;;
2940;SDS011;1480;51.456;6.670;2024-01-16T06:42:17;11.50;;;6.00;;
2940;SDS011;1480;51.456;6.670;2024-01-16T06:44:44;12.27;;;6.57;;
2940;SDS011;1480;51.456;6.670;2024-01-16T06:47:11;24.07;;;6.97;;
2940;SDS011;1480;51.456;6.670;2024-01-16T06:49:38;10.23;;;7.10;;
2940;SDS011;1480;51.456;6.670;2024-01-16T06:52:04;10.63;;;6.00;;
2940;SDS011;1480;51.456;6.670;2024-01-16T06:54:32;14.23;;;7.00;;
2940;SDS011;1480;51.456;6.670;2024-01-16T06:56:59;11.03;;;6.63;;
2940;SDS011;1480;51.456;6.670;2024-01-16T06:59:27;11.53;;;6.70;;
2940;SDS011;1480;51.456;6.670;2024-01-16T07:01:54;9.00;;;6.10;;
2940;SDS011;1480;51.456;6.670;2024-01-16T07:04:20;11.20;;;6.33;;
2940;SDS011;1480;51.456;6.670;2024-01-16T07:06:47;7.90;;;6.20;;
2940;SDS011;1480;51.456;6.670;2024-01-16T07:09:14;11.03;;;7.87;;
2940;SDS011;1480;51.456;6.670;2024-01-16T07:11:41;14.60;;;5.93;;
2940;SDS011;1480;51.456;6.670;2024-01-16T07:14:08;10.73;;;6.90;;
2940;SDS011;1480;51.456;6.670;2024-01-16T07:16:36;6.50;;;5.13;;
2940;SDS011;1480;51.456;6.670;2024-01-16T07:19:03;9.40;;;6.33;;
2940;SDS011;1480;51.456;6.670;2024-01-16T07:21:30;11.50;;;6.40;;
2940;SDS011;1480;51.456;6.670;2024-01-16T07:23:57;9.27;;;5.30;;
2940;SDS011;1480;51.456;6.670;2024-01-16T07:26:23;10.43;;;6.20;;
2940;SDS011;1480;51.456;6.670;2024-01-16T07:28:50;10.70;;;5.57;;
2940;SDS011;1480;51.456;6.670;2024-01-16T07:31:17;8.07;;;5.10;;
2940;SDS011;1480;51.456;6.670;2024-01-16T07:33:45;13.87;;;4.77;;
2940;SDS011;1480;51.456;6.670;2024-01-16T07:36:12;7.80;;;4.67;;
2940;SDS011;1480;51.456;6.670;2024-01-16T07:38:38;6.83;;;4.30;;
2940;SDS011;1480;51.456;6.670;2024-01-16T07:41:05;13.83;;;4.50;;
2940;SDS011;1480;51.456;6.670;2024-01-16T07:43:32;18.13;;;5.47;;
2940;SDS011;1480;51.456;6.670;2024-01-16T07:46:00;9.50;;;4.20;;
2940;SDS011;1480;51.456;6.670;2024-01-16T07:48:28;5.50;;;4.83;;
2940;SDS011;1480;51.456;6.670;2024-01-16T07:50:56;11.73;;;4.20;;
2940;SDS011;1480;51.456;6.670;2024-01-16T07:53:22;7.40;;;4.10;;
2940;SDS011;1480;51.456;6.670;2024-01-16T07:55:52;8.53;;;3.93;;
2940;SDS011;1480;51.456;6.670;2024-01-16T07:58:19;3.70;;;3.37;;
2940;SDS011;1480;51.456;6.670;2024-01-16T08:00:46;10.43;;;2.83;;
2940;SDS011;1480;51.456;6.670;2024-01-16T08:03:13;4.37;;;3.27;;
2940;SDS011;1480;51.456;6.670;2024-01-16T08:05:40;6.73;;;3.17;;
2940;SDS011;1480;51.456;6.670;2024-01-16T08:08:09;12.43;;;3.30;;
2940;SDS011;1480;51.456;6.670;2024-01-16T08:10:35;5.33;;;3.37;;
2940;SDS011;1480;51.456;6.670;2024-01-16T08:13:02;5.70;;;2.60;;
2940;SDS011;1480;51.456;6.670;2024-01-16T08:15:29;6.50;;;3.37;;
2940;SDS011;1480;51.456;6.670;2024-01-16T08:17:56;6.13;;;2.53;;
2940;SDS011;1480;51.456;6.670;2024-01-16T08:20:23;6.20;;;3.00;;
2940;SDS011;1480;51.456;6.670;2024-01-16T08:22:49;7.43;;;3.03;;
2940;SDS011;1480;51.456;6.670;2024-01-16T08:25:17;17.27;;;4.10;;
2940;SDS011;1480;51.456;6.670;2024-01-16T08:27:44;3.00;;;2.47;;
2940;SDS011;1480;51.456;6.670;2024-01-16T08:30:11;4.53;;;2.73;;
2940;SDS011;1480;51.456;6.670;2024-01-16T08:32:38;11.17;;;2.70;;
2940;SDS011;1480;51.456;6.670;2024-01-16T08:35:05;7.33;;;2.67;;
2940;SDS011;1480;51.456;6.670;2024-01-16T08:37:33;5.77;;;2.87;;
2940;SDS011;1480;51.456;6.670;2024-01-16T08:40:00;3.27;;;1.93;;
2940;SDS011;1480;51.456;6.670;2024-01-16T08:42:29;3.47;;;2.30;;
2940;SDS011;1480;51.456;6.670;2024-01-16T08:44:56;6.87;;;2.97;;
2940;SDS011;1480;51.456;6.670;2024-01-16T08:47:23;6.47;;;2.80;;
2940;SDS011;1480;51.456;6.670;2024-01-16T08:49:50;10.60;;;2.87;;
2940;SDS011;1480;51.456;6.670;2024-01-16T08:52:17;3.00;;;2.53;;
2940;SDS011;1480;51.456;6.670;2024-01-16T08:54:43;5.50;;;2.73;;
2940;SDS011;1480;51.456;6.670;2024-01-16T08:57:10;4.00;;;1.87;;
2940;SDS011;1480;51.456;6.670;2024-01-16T08:59:39;10.80;;;2.93;;
2940;SDS011;1480;51.456;6.670;2024-01-16T09:02:06;13.50;;;4.23;;
2940;SDS011;1480;51.456;6.670;2024-01-16T09:04:33;6.17;;;1.93;;
2940;SDS011;1480;51.456;6.670;2024-01-16T09:07:00;4.47;;;2.50;;
2940;SDS011;1480;51.456;6.670;2024-01-16T09:09:29;14.60;;;4.00;;
2940;SDS011;1480;51.456;6.670;2024-01-16T09:11:56;6.57;;;2.40;;
2940;SDS011;1480;51.456;6.670;2024-01-16T09:14:23;5.20;;;3.20;;
2940;SDS011;1480;51.456;6.670;2024-01-16T09:16:51;7.83;;;4.43;;
2940;SDS011;1480;51.456;6.670;2024-01-16T09:19:19;4.47;;;2.73;;
2940;SDS011;1480;51.456;6.670;2024-01-16T09:21:45;2.83;;;2.33;;
2940;SDS011;1480;51.456;6.670;2024-01-16T09:24:12;4.77;;;2.90;;
2940;SDS011;1480;51.456;6.670;2024-01-16T09:26:39;5.83;;;2.57;;
2940;SDS011;1480;51.456;6.670;2024-01-16T09:29:06;7.30;;;2.67;;
2940;SDS011;1480;51.456;6.670;2024-01-16T09:31:34;8.10;;;2.60;;
2940;SDS011;1480;51.456;6.670;2024-01-16T09:34:02;2.83;;;2.47;;
2940;SDS011;1480;51.456;6.670;2024-01-16T09:36:28;4.73;;;2.50;;
2940;SDS011;1480;51.456;6.670;2024-01-16T09:38:55;9.57;;;2.87;;
2940;SDS011;1480;51.456;6.670;2024-01-16T09:41:22;5.57;;;2.83;;
2940;SDS011;1480;51.456;6.670;2024-01-16T09:43:49;10.40;;;3.53;;
2940;SDS011;1480;51.456;6.670;2024-01-16T09:46:17;7.00;;;2.90;;
2940;SDS011;1480;51.456;6.670;2024-01-16T09:48:44;9.03;;;2.43;;
2940;SDS011;1480;51.456;6.670;2024-01-16T09:51:13;5.20;;;2.90;;
2940;SDS011;1480;51.456;6.670;2024-01-16T09:53:40;4.10;;;2.27;;
2940;SDS011;1480;51.456;6.670;2024-01-16T09:56:09;9.83;;;3.40;;
2940;SDS011;1480;51.456;6.670;2024-01-16T09:58:39;3.57;;;3.03;;
2940;SDS011;1480;51.456;6.670;2024-01-16T10:01:06;3.50;;;2.70;;
2940;SDS011;1480;51.456;6.670;2024-01-16T10:03:33;7.50;;;3.43;;
2940;SDS011;1480;51.456;6.670;2024-01-16T10:06:01;5.90;;;3.27;;
2940;SDS011;1480;51.456;6.670;2024-01-16T10:08:30;6.77;;;3.30;;
2940;SDS011;1480;51.456;6.670;2024-01-16T10:10:57;5.90;;;2.60;;
2940;SDS011;1480;51.456;6.670;2024-01-16T10:13:24;6.70;;;3.90;;
2940;SDS011;1480;51.456;6.670;2024-01-16T10:15:51;10.77;;;2.60;;
2940;SDS011;1480;51.456;6.670;2024-01-16T10:18:23;10.40;;;2.70;;
2940;SDS011;1480;51.456;6.670;2024-01-16T10:20:50;4.60;;;3.17;;
2940;SDS011;1480;51.456;6.670;2024-01-16T10:23:22;6.00;;;2.40;;
2940;SDS011;1480;51.456;6.670;2024-01-16T10:26:00;4.63;;;2.73;;
2940;SDS011;1480;51.456;6.670;2024-01-16T10:28:31;4.40;;;2.47;;
2940;SDS011;1480;51.456;6.670;2024-01-16T10:31:01;8.00;;;3.30;;
2940;SDS011;1480;51.456;6.670;2024-01-16T10:33:28;7.50;;;3.10;;
2940;SDS011;1480;51.456;6.670;2024-01-16T10:36:02;15.20;;;3.90;;
2940;SDS011;1480;51.456;6.670;2024-01-16T10:38:34;6.90;;;3.23;;
2940;SDS011;1480;51.456;6.670;2024-01-16T10:41:08;8.20;;;3.03;;
2940;SDS011;1480;51.456;6.670;2024-01-16T10:43:38;6.57;;;3.40;;
2940;SDS011;1480;51.456;6.670;2024-01-16T10:46:11;5.20;;;2.40;;
2940;SDS011;1480;51.456;6.670;2024-01-16T10:48:39;6.13;;;3.90;;
2940;SDS011;1480;51.456;6.670;2024-01-16T10:51:07;5.70;;;3.27;;
2940;SDS011;1480;51.456;6.670;2024-01-16T10:53:34;3.27;;;2.47;;
2940;SDS011;1480;51.456;6.670;2024-01-16T10:56:01;9.83;;;3.90;;
2940;SDS011;1480;51.456;6.670;2024-01-16T10:58:31;13.30;;;3.90;;
2940;SDS011;1480;51.456;6.670;2024-01-16T11:01:00;6.50;;;3.60;;
2940;SDS011;1480;51.456;6.670;2024-01-16T11:03:29;6.63;;;3.00;;
2940;SDS011;1480;51.456;6.670;2024-01-16T11:06:01;5.03;;;3.07;;
2940;SDS011;1480;51.456;6.670;2024-01-16T11:08:28;6.00;;;3.40;;
2940;SDS011;1480;51.456;6.670;2024-01-16T11:10:58;9.83;;;3.27;;
2940;SDS011;1480;51.456;6.670;2024-01-16T11:13:26;10.20;;;4.03;;
2940;SDS011;1480;51.456;6.670;2024-01-16T11:15:54;5.53;;;3.60;;
2940;SDS011;1480;51.456;6.670;2024-01-16T11:18:21;10.10;;;3.87;;
2940;SDS011;1480;51.456;6.670;2024-01-16T11:20:48;5.63;;;3.60;;
2940;SDS011;1480;51.456;6.670;2024-01-16T11:23:15;7.13;;;3.70;;
2940;SDS011;1480;51.456;6.670;2024-01-16T11:25:41;7.83;;;4.67;;
2940;SDS011;1480;51.456;6.670;2024-01-16T11:28:08;6.97;;;3.37;;
2940;SDS011;1480;51.456;6.670;2024-01-16T11:30:36;5.73;;;2.57;;
2940;SDS011;1480;51.456;6.670;2024-01-16T11:33:04;8.70;;;3.23;;
2940;SDS011;1480;51.456;6.670;2024-01-16T11:35:32;10.07;;;2.90;;
2940;SDS011;1480;51.456;6.670;2024-01-16T11:38:03;6.50;;;3.90;;
2940;SDS011;1480;51.456;6.670;2024-01-16T11:40:34;5.40;;;3.10;;
2940;SDS011;1480;51.456;6.670;2024-01-16T11:46:01;4.63;;;2.57;;
2940;SDS011;1480;51.456;6.670;2024-01-16T11:48:29;5.80;;;3.00;;
2940;SDS011;1480;51.456;6.670;2024-01-16T11:50:56;5.97;;;2.97;;
2940;SDS011;1480;51.456;6.670;2024-01-16T11:53:32;6.83;;;3.60;;
2940;SDS011;1480;51.456;6.670;2024-01-16T11:56:09;5.10;;;3.43;;
2940;SDS011;1480;51.456;6.670;2024-01-16T11:58:43;5.83;;;3.63;;
2940;SDS011;1480;51.456;6.670;2024-01-16T12:01:11;4.40;;;2.77;;
2940;SDS011;1480;51.456;6.670;2024-01-16T12:03:39;7.00;;;3.03;;
2940;SDS011;1480;51.456;6.670;2024-01-16T12:06:06;3.70;;;2.90;;
2940;SDS011;1480;51.456;6.670;2024-01-16T12:08:34;7.43;;;3.80;;
2940;SDS011;1480;51.456;6.670;2024-01-16T12:11:01;6.23;;;3.90;;
2940;SDS011;1480;51.456;6.670;2024-01-16T12:13:29;6.03;;;2.83;;
2940;SDS011;1480;51.456;6.670;2024-01-16T12:15:59;7.17;;;3.90;;
2940;SDS011;1480;51.456;6.670;2024-01-16T12:18:26;7.30;;;3.37;;
2940;SDS011;1480;51.456;6.670;2024-01-16T12:20:55;7.00;;;3.50;;
2940;SDS011;1480;51.456;6.670;2024-01-16T12:23:21;5.00;;;3.00;;
2940;SDS011;1480;51.456;6.670;2024-01-16T12:25:51;3.77;;;2.77;;
2940;SDS011;1480;51.456;6.670;2024-01-16T12:28:20;8.93;;;3.60;;
2940;SDS011;1480;51.456;6.670;2024-01-16T12:30:48;8.90;;;3.43;;
2940;SDS011;1480;51.456;6.670;2024-01-16T12:33:16;5.80;;;3.03;;
2940;SDS011;1480;51.456;6.670;2024-01-16T12:35:43;7.53;;;3.30;;
2940;SDS011;1480;51.456;6.670;2024-01-16T12:38:12;4.43;;;2.77;;
2940;SDS011;1480;51.456;6.670;2024-01-16T12:40:40;9.47;;;3.60;;
2940;SDS011;1480;51.456;6.670;2024-01-16T12:43:08;6.87;;;3.73;;
2940;SDS011;1480;51.456;6.670;2024-01-16T12:45:34;6.93;;;2.90;;
2940;SDS011;1480;51.456;6.670;2024-01-16T12:48:01;5.10;;;3.23;;
2940;SDS011;1480;51.456;6.670;2024-01-16T12:50:29;6.80;;;3.53;;
2940;SDS011;1480;51.456;6.670;2024-01-16T12:53:01;8.53;;;3.30;;
2940;SDS011;1480;51.456;6.670;2024-01-16T12:55:30;7.20;;;3.00;;
2940;SDS011;1480;51.456;6.670;2024-01-16T13:00:45;10.90;;;3.50;;
2940;SDS011;1480;51.456;6.670;2024-01-16T13:03:15;2.80;;;2.20;;
2940;SDS011;1480;51.456;6.670;2024-01-16T13:05:43;4.67;;;3.10;;
2940;SDS011;1480;51.456;6.670;2024-01-16T13:08:16;5.70;;;2.77;;
2940;SDS011;1480;51.456;6.670;2024-01-16T13:10:45;8.37;;;3.70;;
2940;SDS011;1480;51.456;6.670;2024-01-16T13:13:13;8.43;;;3.00;;
2940;SDS011;1480;51.456;6.670;2024-01-16T13:15:40;4.00;;;2.60;;
2940;SDS011;1480;51.456;6.670;2024-01-16T13:18:16;7.53;;;3.80;;
2940;SDS011;1480;51.456;6.670;2024-01-16T13:20:44;5.77;;;3.70;;
2940;SDS011;1480;51.456;6.670;2024-01-16T13:23:12;8.43;;;3.40;;
2940;SDS011;1480;51.456;6.670;2024-01-16T13:25:39;5.40;;;3.30;;
2940;SDS011;1480;51.456;6.670;2024-01-16T13:28:08;6.23;;;3.37;;
2940;SDS011;1480;51.456;6.670;2024-01-16T13:30:35;6.77;;;3.23;;
2940;SDS011;1480;51.456;6.670;2024-01-16T13:33:02;4.63;;;3.10;;
2940;SDS011;1480;51.456;6.670;2024-01-16T13:35:29;7.57;;;3.60;;
2940;SDS011;1480;51.456;6.670;2024-01-16T13:37:56;8.93;;;4.00;;
2940;SDS011;1480;51.456;6.670;2024-01-16T13:40:23;10.00;;;3.30;;
2940;SDS011;1480;51.456;6.670;2024-01-16T13:42:50;7.33;;;3.30;;
2940;SDS011;1480;51.456;6.670;2024-01-16T13:45:18;5.63;;;3.40;;
2940;SDS011;1480;51.456;6.670;2024-01-16T13:47:44;4.10;;;3.17;;
2940;SDS011;1480;51.456;6.670;2024-01-16T13:50:11;15.70;;;3.50;;
2940;SDS011;1480;51.456;6.670;2024-01-16T13:52:38;5.67;;;3.50;;
2940;SDS011;1480;51.456;6.670;2024-01-16T13:55:05;15.67;;;5.20;;
2940;SDS011;1480;51.456;6.670;2024-01-16T13:57:32;7.93;;;4.57;;
2940;SDS011;1480;51.456;6.670;2024-01-16T14:00:00;5.87;;;3.73;;
2940;SDS011;1480;51.456;6.670;2024-01-16T14:02:38;7.97;;;3.40;;
2940;SDS011;1480;51.456;6.670;2024-01-16T14:05:07;5.43;;;3.70;;
2940;SDS011;1480;51.456;6.670;2024-01-16T14:07:36;4.70;;;3.30;;
2940;SDS011;1480;51.456;6.670;2024-01-16T14:10:04;6.70;;;3.30;;
2940;SDS011;1480;51.456;6.670;2024-01-16T14:12:32;6.53;;;3.27;;
2940;SDS011;1480;51.456;6.670;2024-01-16T14:15:00;9.13;;;4.37;;
2940;SDS011;1480;51.456;6.670;2024-01-16T14:17:29;6.27;;;3.43;;
2940;SDS011;1480;51.456;6.670;2024-01-16T14:19:57;12.23;;;3.00;;
2940;SDS011;1480;51.456;6.670;2024-01-16T14:22:24;8.30;;;2.50;;
2940;SDS011;1480;51.456;6.670;2024-01-16T14:24:52;8.80;;;3.30;;
2940;SDS011;1480;51.456;6.670;2024-01-16T14:27:18;6.63;;;3.63;;
2940;SDS011;1480;51.456;6.670;2024-01-16T14:29:45;5.70;;;2.93;;
2940;SDS011;1480;51.456;6.670;2024-01-16T14:32:12;4.23;;;3.10;;
2940;SDS011;1480;51.456;6.670;2024-01-16T14:34:38;5.87;;;2.53;;
2940;SDS011;1480;51.456;6.670;2024-01-16T14:37:06;6.37;;;3.30;;
2940;SDS011;1480;51.456;6.670;2024-01-16T14:39:33;10.83;;;4.00;;
2940;SDS011;1480;51.456;6.670;2024-01-16T14:42:01;7.50;;;3.33;;
2940;SDS011;1480;51.456;6.670;2024-01-16T14:44:28;5.77;;;3.43;;
2940;SDS011;1480;51.456;6.670;2024-01-16T14:46:55;7.30;;;3.30;;
2940;SDS011;1480;51.456;6.670;2024-01-16T14:49:21;3.73;;;3.13;;
2940;SDS011;1480;51.456;6.670;2024-01-16T14:51:48;10.20;;;3.43;;
2940;SDS011;1480;51.456;6.670;2024-01-16T14:54:16;8.83;;;3.03;;
2940;SDS011;1480;51.456;6.670;2024-01-16T14:56:44;6.13;;;3.13;;
2940;SDS011;1480;51.456;6.670;2024-01-16T14:59:10;3.53;;;2.70;;
2940;SDS011;1480;51.456;6.670;2024-01-16T15:01:38;5.73;;;3.33;;
2940;SDS011;1480;51.456;6.670;2024-01-16T15:04:05;5.27;;;3.13;;
2940;SDS011;1480;51.456;6.670;2024-01-16T15:06:32;6.07;;;3.23;;
2940;SDS011;1480;51.456;6.670;2024-01-16T15:08:59;4.30;;;3.13;;
2940;SDS011;1480;51.456;6.670;2024-01-16T15:11:27;4.40;;;2.40;;
2940;SDS011;1480;51.456;6.670;2024-01-16T15:13:54;5.87;;;2.90;;
2940;SDS011;1480;51.456;6.670;2024-01-16T15:16:22;4.83;;;2.70;;
2940;SDS011;1480;51.456;6.670;2024-01-16T15:18:49;6.40;;;3.20;;